createdAt,value
2018-04-18T00:00:26.939Z,8.07
2018-04-18T00:02:55.618Z,7.00
2018-04-18T00:05:24.823Z,5.43
2018-04-18T00:07:53.964Z,8.30
2018-04-18T00:10:23.123Z,5.30
2018-04-18T00:12:51.767Z,4.87
2018-04-18T00:15:20.518Z,3.77
2018-04-18T00:17:49.650Z,9.13
2018-04-18T00:20:18.509Z,3.93
2018-04-18T00:22:47.040Z,4.93
2018-04-18T00:25:16.272Z,5.63
2018-04-18T00:27:44.713Z,5.30
2018-04-18T00:30:13.325Z,6.50
2018-04-18T00:32:41.690Z,3.93
2018-04-18T00:35:10.068Z,7.43
2018-04-18T00:37:38.456Z,6.70
2018-04-18T00:40:06.807Z,6.70
2018-04-18T00:42:35.260Z,4.43
2018-04-18T00:45:04.187Z,5.30
2018-04-18T00:47:32.645Z,6.63
2018-04-18T00:50:01.936Z,6.27
2018-04-18T00:52:30.310Z,6.77
2018-04-18T00:54:58.789Z,5.60
2018-04-18T00:57:27.156Z,4.53
2018-04-18T00:59:56.302Z,7.53
2018-04-18T01:02:25.182Z,6.23
2018-04-18T01:04:53.818Z,6.93
2018-04-18T01:07:23.098Z,4.20
2018-04-18T01:09:52.466Z,4.27
2018-04-18T01:12:20.843Z,5.83
2018-04-18T01:14:49.218Z,3.57
2018-04-18T01:17:17.590Z,4.80
2018-04-18T01:19:46.031Z,5.67
2018-04-18T01:22:15.839Z,5.17
2018-04-18T01:24:45.057Z,6.63
2018-04-18T01:27:13.440Z,4.63
2018-04-18T01:29:41.811Z,6.73
2018-04-18T01:32:11.101Z,5.33
2018-04-18T01:34:40.251Z,5.43
2018-04-18T01:37:09.019Z,6.83
2018-04-18T01:39:37.431Z,6.10
2018-04-18T01:42:05.790Z,7.00
2018-04-18T01:44:34.538Z,4.53
2018-04-18T01:47:02.930Z,4.57
2018-04-18T01:49:32.197Z,8.53
2018-04-18T01:52:01.607Z,8.37
2018-04-18T01:54:31.814Z,7.17
2018-04-18T01:57:00.175Z,9.93
2018-04-18T01:59:28.538Z,3.23
2018-04-18T02:01:57.671Z,5.03
2018-04-18T02:04:26.891Z,3.43
2018-04-18T02:06:55.270Z,7.37
2018-04-18T02:09:23.907Z,6.67
2018-04-18T02:11:52.813Z,7.63
2018-04-18T02:14:22.080Z,9.50
2018-04-18T02:16:50.487Z,4.47
2018-04-18T02:19:19.670Z,7.47
2018-04-18T02:21:48.091Z,4.60
2018-04-18T02:24:16.792Z,12.27
2018-04-18T02:26:45.687Z,6.10
2018-04-18T02:29:14.105Z,7.40
2018-04-18T02:31:43.644Z,5.40
2018-04-18T02:34:12.210Z,5.37
2018-04-18T02:36:41.315Z,8.13
2018-04-18T02:39:12.651Z,8.43
2018-04-18T02:41:41.799Z,4.43
2018-04-18T02:44:10.162Z,5.47
2018-04-18T02:46:38.565Z,3.07
2018-04-18T02:49:06.946Z,4.13
2018-04-18T02:51:35.310Z,5.57
2018-04-18T02:54:04.246Z,5.80
2018-04-18T02:56:33.400Z,5.30
2018-04-18T02:59:01.783Z,5.13
2018-04-18T03:01:30.421Z,10.50
2018-04-18T03:04:00.292Z,9.43
2018-04-18T03:06:29.319Z,4.63
2018-04-18T03:08:58.449Z,3.70
2018-04-18T03:11:26.983Z,3.40
2018-04-18T03:13:56.125Z,5.47
2018-04-18T03:16:24.886Z,4.03
2018-04-18T03:18:54.030Z,5.30
2018-04-18T03:21:22.478Z,8.03
2018-04-18T03:23:50.886Z,3.70
2018-04-18T03:26:19.426Z,4.33
2018-04-18T03:28:47.830Z,3.00
2018-04-18T03:31:16.254Z,5.27
2018-04-18T03:33:45.966Z,5.93
2018-04-18T03:36:14.329Z,3.63
2018-04-18T03:38:42.735Z,6.33
2018-04-18T03:41:11.867Z,6.93
2018-04-18T03:43:40.258Z,7.20
2018-04-18T03:46:08.737Z,4.43
2018-04-18T03:48:37.350Z,5.97
2018-04-18T03:51:05.694Z,3.57
2018-04-18T03:53:34.529Z,6.33
2018-04-18T03:56:03.903Z,4.87
2018-04-18T03:58:32.918Z,5.50
2018-04-18T04:01:02.296Z,6.10
2018-04-18T04:03:31.263Z,4.53
2018-04-18T04:05:59.634Z,5.50
2018-04-18T04:08:29.006Z,5.37
2018-04-18T04:10:57.407Z,8.13
2018-04-18T04:13:26.092Z,5.83
2018-04-18T04:15:54.457Z,4.13
2018-04-18T04:18:36.127Z,4.43
2018-04-18T04:21:17.807Z,6.23
2018-04-18T04:23:58.633Z,5.30
2018-04-18T04:26:27.120Z,4.50
2018-04-18T04:28:55.521Z,4.53
2018-04-18T04:31:23.878Z,6.03
2018-04-18T04:33:52.284Z,3.83
2018-04-18T04:36:20.624Z,3.53
2018-04-18T04:38:49.012Z,6.73
2018-04-18T04:41:17.370Z,6.73
2018-04-18T04:43:45.796Z,7.00
2018-04-18T04:46:15.141Z,4.67
2018-04-18T04:48:43.643Z,6.80
2018-04-18T04:51:12.415Z,6.10
2018-04-18T04:53:41.886Z,10.17
2018-04-18T04:56:11.017Z,9.73
2018-04-18T04:58:39.402Z,8.93
2018-04-18T05:01:07.771Z,9.77
2018-04-18T05:03:36.189Z,8.83
2018-04-18T05:06:04.994Z,8.43
2018-04-18T05:08:34.830Z,9.30
2018-04-18T05:11:03.816Z,9.03
2018-04-18T05:13:32.973Z,12.30
2018-04-18T05:16:01.630Z,6.73
2018-04-18T05:18:31.437Z,8.60
2018-04-18T05:20:59.953Z,12.53
2018-04-18T05:23:29.118Z,10.23
2018-04-18T05:25:58.036Z,9.40
2018-04-18T05:28:26.866Z,9.13
2018-04-18T05:30:56.396Z,10.33
2018-04-18T05:33:24.821Z,8.83
2018-04-18T05:35:53.213Z,11.63
2018-04-18T05:38:21.676Z,10.70
2018-04-18T05:40:50.402Z,7.57
2018-04-18T05:43:18.903Z,10.30
2018-04-18T05:45:47.932Z,7.80
2018-04-18T05:48:16.998Z,10.47
2018-04-18T05:50:45.508Z,8.10
2018-04-18T05:53:14.305Z,9.93
2018-04-18T05:55:42.687Z,8.23
2018-04-18T05:58:11.819Z,11.60
2018-04-18T06:00:40.791Z,11.30
2018-04-18T06:03:09.159Z,11.10
2018-04-18T06:05:38.647Z,9.03
2018-04-18T06:08:07.018Z,9.20
2018-04-18T06:10:35.810Z,10.47
2018-04-18T06:13:04.311Z,9.50
2018-04-18T06:15:33.958Z,11.87
2018-04-18T06:18:02.352Z,11.70
2018-04-18T06:20:30.754Z,13.77
2018-04-18T06:22:59.532Z,13.07
2018-04-18T06:25:28.779Z,10.70
2018-04-18T06:27:57.692Z,8.30
2018-04-18T06:30:26.194Z,11.30
2018-04-18T06:32:54.562Z,10.13
2018-04-18T06:35:23.218Z,16.80
2018-04-18T06:37:51.842Z,11.33
2018-04-18T06:40:20.467Z,10.77
2018-04-18T06:42:50.010Z,14.57
2018-04-18T06:45:18.406Z,17.17
2018-04-18T06:47:47.593Z,10.87
2018-04-18T06:50:16.005Z,11.63
2018-04-18T06:52:44.354Z,8.73
2018-04-18T06:55:12.751Z,13.33
2018-04-18T06:57:41.176Z,10.30
2018-04-18T07:00:10.211Z,11.40
2018-04-18T07:02:38.579Z,11.30
2018-04-18T07:05:07.054Z,10.87
2018-04-18T07:07:35.427Z,13.07
2018-04-18T07:10:04.232Z,10.53
2018-04-18T07:12:33.873Z,9.67
2018-04-18T07:15:03.130Z,11.67
2018-04-18T07:17:32.107Z,10.20
2018-04-18T07:20:00.718Z,12.73
2018-04-18T07:22:29.084Z,14.63
2018-04-18T07:24:58.838Z,11.60
2018-04-18T07:27:28.490Z,10.67
2018-04-18T07:29:57.057Z,10.13
2018-04-18T07:32:25.913Z,8.63
2018-04-18T07:34:54.306Z,10.60
2018-04-18T07:37:22.822Z,14.67
2018-04-18T07:39:51.230Z,10.70
2018-04-18T07:42:19.715Z,9.70
2018-04-18T07:44:48.294Z,10.00
2018-04-18T07:47:16.680Z,11.00
2018-04-18T07:49:45.051Z,9.77
2018-04-18T07:52:13.490Z,10.10
2018-04-18T07:54:41.858Z,14.13
2018-04-18T07:57:10.319Z,12.83
2018-04-18T07:59:38.693Z,11.37
2018-04-18T08:02:07.899Z,14.70
2018-04-18T08:04:37.035Z,13.10
2018-04-18T08:07:05.782Z,10.87
2018-04-18T08:09:34.496Z,11.07
2018-04-18T08:12:03.158Z,9.37
2018-04-18T08:14:31.627Z,10.93
2018-04-18T08:17:00.091Z,15.37
2018-04-18T08:19:29.791Z,13.00
2018-04-18T08:21:58.166Z,10.80
2018-04-18T08:24:26.543Z,12.07
2018-04-18T08:26:54.967Z,13.30
2018-04-18T08:29:23.334Z,11.60
2018-04-18T08:31:51.851Z,13.57
2018-04-18T08:34:20.796Z,10.83
2018-04-18T08:36:49.183Z,13.53
2018-04-18T08:39:17.595Z,11.33
2018-04-18T08:41:46.285Z,15.00
2018-04-18T08:44:14.678Z,13.57
2018-04-18T08:46:43.119Z,11.93
2018-04-18T08:49:11.516Z,17.60
2018-04-18T08:51:39.920Z,14.83
2018-04-18T08:54:08.303Z,12.17
2018-04-18T08:56:36.684Z,16.20
2018-04-18T08:59:05.085Z,25.23
2018-04-18T09:01:33.498Z,19.30
2018-04-18T09:04:02.336Z,17.63
2018-04-18T09:06:31.470Z,21.87
2018-04-18T09:09:00.138Z,22.03
2018-04-18T09:11:30.571Z,17.10
2018-04-18T09:14:00.125Z,14.67
2018-04-18T09:16:28.625Z,24.10
2018-04-18T09:18:57.815Z,14.13
2018-04-18T09:21:26.531Z,13.37
2018-04-18T09:23:54.914Z,19.20
2018-04-18T09:26:23.317Z,13.97
2018-04-18T09:28:51.967Z,12.93
2018-04-18T09:31:21.136Z,12.53
2018-04-18T09:33:49.736Z,14.07
2018-04-18T09:36:18.120Z,12.07
2018-04-18T09:38:47.363Z,12.57
2018-04-18T09:41:15.768Z,15.17
2018-04-18T09:43:44.151Z,13.73
2018-04-18T09:46:12.590Z,14.20
2018-04-18T09:48:41.179Z,13.77
2018-04-18T09:51:09.735Z,16.87
2018-04-18T09:53:38.113Z,16.17
2018-04-18T09:56:06.964Z,13.70
2018-04-18T09:58:35.414Z,14.57
2018-04-18T10:01:03.783Z,16.60
2018-04-18T10:03:32.175Z,12.80
2018-04-18T10:06:01.322Z,14.40
2018-04-18T10:08:30.464Z,16.20
2018-04-18T10:10:59.385Z,15.60
2018-04-18T10:13:27.879Z,13.53
2018-04-18T10:15:56.870Z,14.17
2018-04-18T10:18:26.051Z,13.83
2018-04-18T10:20:54.425Z,13.77
2018-04-18T10:23:23.365Z,12.40
2018-04-18T10:25:51.759Z,16.53
2018-04-18T10:28:20.142Z,12.43
2018-04-18T10:30:48.538Z,11.80
2018-04-18T10:33:16.935Z,14.70
2018-04-18T10:35:45.632Z,12.90
2018-04-18T10:38:14.353Z,16.13
2018-04-18T10:40:44.482Z,13.80
2018-04-18T10:43:13.154Z,18.77
2018-04-18T10:45:42.463Z,11.70
2018-04-18T10:48:10.990Z,12.43
2018-04-18T10:50:40.193Z,10.83
2018-04-18T10:53:09.453Z,10.53
2018-04-18T10:55:37.835Z,9.93
2018-04-18T10:58:06.385Z,11.07
2018-04-18T11:00:34.751Z,11.33
2018-04-18T11:03:03.154Z,11.53
2018-04-18T11:05:31.554Z,8.90
2018-04-18T11:08:00.003Z,8.60
2018-04-18T11:10:28.431Z,9.27
2018-04-18T11:12:56.813Z,9.53
2018-04-18T11:15:25.190Z,8.43
2018-04-18T11:17:53.575Z,8.00
2018-04-18T11:20:22.011Z,7.23
2018-04-18T11:22:50.540Z,9.70
2018-04-18T11:25:18.909Z,8.33
2018-04-18T11:27:47.656Z,9.23
2018-04-18T11:30:21.697Z,8.37
2018-04-18T11:32:51.157Z,11.23
2018-04-18T11:35:20.738Z,11.07
2018-04-18T11:37:49.965Z,13.83
2018-04-18T11:40:18.802Z,9.63
2018-04-18T11:42:47.198Z,11.20
2018-04-18T11:45:16.353Z,10.87
2018-04-18T11:47:44.760Z,11.53
2018-04-18T11:50:13.363Z,9.23
2018-04-18T11:52:42.633Z,12.30
2018-04-18T11:55:12.065Z,9.83
2018-04-18T11:57:41.431Z,9.90
2018-04-18T12:00:10.260Z,9.37
2018-04-18T12:02:39.063Z,10.50
2018-04-18T12:05:07.467Z,10.40
2018-04-18T12:07:35.930Z,11.10
2018-04-18T12:10:04.317Z,12.47
2018-04-18T12:12:33.488Z,10.13
2018-04-18T12:15:01.901Z,8.20
2018-04-18T12:17:31.490Z,10.17
2018-04-18T12:20:00.383Z,15.10
2018-04-18T12:22:28.832Z,11.07
2018-04-18T12:24:57.226Z,9.80
2018-04-18T12:27:25.603Z,10.97
2018-04-18T12:29:54.163Z,8.33
2018-04-18T12:32:22.998Z,9.93
2018-04-18T12:34:51.680Z,9.23
2018-04-18T12:37:20.083Z,10.50
2018-04-18T12:39:48.690Z,9.87
2018-04-18T12:42:17.886Z,15.07
2018-04-18T12:44:47.078Z,9.83
2018-04-18T12:47:16.212Z,9.43
2018-04-18T12:49:44.790Z,9.83
2018-04-18T12:52:13.289Z,12.60
2018-04-18T12:54:41.834Z,10.13
2018-04-18T12:57:10.344Z,14.00
2018-04-18T12:59:38.754Z,9.37
2018-04-18T13:02:07.196Z,16.43
2018-04-18T13:04:35.689Z,11.63
2018-04-18T13:07:04.096Z,9.23
2018-04-18T13:09:33.260Z,12.77
2018-04-18T13:12:01.643Z,11.53
2018-04-18T13:14:30.490Z,9.57
2018-04-18T13:16:59.651Z,12.43
2018-04-18T13:19:28.561Z,9.80
2018-04-18T13:21:57.820Z,12.47
2018-04-18T13:24:28.451Z,11.30
2018-04-18T13:26:57.950Z,9.27
2018-04-18T13:29:27.133Z,8.27
2018-04-18T13:31:55.562Z,8.03
2018-04-18T13:34:25.287Z,12.80
2018-04-18T13:36:54.611Z,10.40
2018-04-18T13:39:23.731Z,8.83
2018-04-18T13:41:52.683Z,12.90
2018-04-18T13:44:21.848Z,12.63
2018-04-18T13:46:51.147Z,8.37
2018-04-18T13:49:19.750Z,12.47
2018-04-18T13:51:49.827Z,15.40
2018-04-18T13:54:18.258Z,11.57
2018-04-18T13:56:47.558Z,7.47
2018-04-18T13:59:16.459Z,15.53
2018-04-18T14:01:45.741Z,10.13
2018-04-18T14:04:15.264Z,10.47
2018-04-18T14:06:43.673Z,11.97
2018-04-18T14:09:15.169Z,12.43
2018-04-18T14:11:43.891Z,15.00
2018-04-18T14:14:12.555Z,11.10
2018-04-18T14:16:41.987Z,9.60
2018-04-18T14:19:11.307Z,9.43
2018-04-18T14:21:39.710Z,11.90
2018-04-18T14:24:08.209Z,7.67
2018-04-18T14:26:37.120Z,10.57
2018-04-18T14:29:05.539Z,9.57
2018-04-18T14:31:34.301Z,9.97
2018-04-18T14:34:02.691Z,12.50
2018-04-18T14:36:31.246Z,7.87
2018-04-18T14:38:59.628Z,9.00
2018-04-18T14:41:28.170Z,8.50
2018-04-18T14:43:57.318Z,9.70
2018-04-18T14:46:27.287Z,10.63
2018-04-18T14:48:58.817Z,8.00
2018-04-18T14:51:27.479Z,7.40
2018-04-18T14:53:56.284Z,14.33
2018-04-18T14:56:24.673Z,9.97
2018-04-18T14:58:53.548Z,6.60
2018-04-18T15:01:21.975Z,7.70
2018-04-18T15:03:51.125Z,8.70
2018-04-18T15:06:19.805Z,7.10
2018-04-18T15:08:48.178Z,7.27
2018-04-18T15:11:16.617Z,9.53
2018-04-18T15:13:45.028Z,7.20
2018-04-18T15:16:13.404Z,6.63
2018-04-18T15:18:42.604Z,8.33
2018-04-18T15:21:10.983Z,6.03
2018-04-18T15:23:39.392Z,7.17
2018-04-18T15:26:09.026Z,7.77
2018-04-18T15:28:38.177Z,8.13
2018-04-18T15:31:07.384Z,13.93
2018-04-18T15:33:36.126Z,9.17
2018-04-18T15:36:05.142Z,10.47
2018-04-18T15:38:33.713Z,9.30
2018-04-18T15:41:02.379Z,10.93
2018-04-18T15:43:31.204Z,7.60
2018-04-18T15:46:00.115Z,7.87
2018-04-18T15:48:29.834Z,7.63
2018-04-18T15:50:59.016Z,9.43
2018-04-18T15:53:27.693Z,8.57
2018-04-18T15:55:56.297Z,8.43
2018-04-18T15:58:25.499Z,7.97
2018-04-18T16:00:54.635Z,8.37
2018-04-18T16:03:23.203Z,8.60
2018-04-18T16:05:51.581Z,8.17
2018-04-18T16:08:22.541Z,8.80
2018-04-18T16:10:51.066Z,7.07
2018-04-18T16:13:20.611Z,9.40
2018-04-18T16:15:49.044Z,11.70
2018-04-18T16:18:20.233Z,8.87
2018-04-18T16:20:49.527Z,10.60
2018-04-18T16:23:18.940Z,8.17
2018-04-18T16:25:48.188Z,7.73
2018-04-18T16:28:19.471Z,8.77
2018-04-18T16:30:49.423Z,7.30
2018-04-18T16:33:17.805Z,6.43
2018-04-18T16:35:46.217Z,4.80
2018-04-18T16:38:15.412Z,6.50
2018-04-18T16:40:45.008Z,7.60
2018-04-18T16:43:14.127Z,6.63
2018-04-18T16:45:43.297Z,5.80
2018-04-18T16:48:13.479Z,9.00
2018-04-18T16:50:42.255Z,8.23
2018-04-18T16:53:10.648Z,7.90
2018-04-18T16:55:39.418Z,8.00
2018-04-18T16:58:08.946Z,6.77
2018-04-18T17:00:37.308Z,6.30
2018-04-18T17:03:05.748Z,7.17
2018-04-18T17:05:35.440Z,5.87
2018-04-18T17:08:04.342Z,6.97
2018-04-18T17:10:33.526Z,10.40
2018-04-18T17:13:01.889Z,8.70
2018-04-18T17:15:30.277Z,6.23
2018-04-18T17:17:58.739Z,5.83
2018-04-18T17:20:27.209Z,6.50
2018-04-18T17:22:56.336Z,7.43
2018-04-18T17:25:26.884Z,6.17
2018-04-18T17:27:55.617Z,5.20
2018-04-18T17:30:24.041Z,4.77
2018-04-18T17:32:53.182Z,5.13
2018-04-18T17:35:21.941Z,6.57
2018-04-18T17:37:51.067Z,7.33
2018-04-18T17:40:19.546Z,6.33
2018-04-18T17:42:48.562Z,7.97
2018-04-18T17:45:17.185Z,5.17
2018-04-18T17:47:46.439Z,9.07
2018-04-18T17:50:16.347Z,5.97
2018-04-18T17:52:44.862Z,8.03
2018-04-18T17:55:13.371Z,4.17
2018-04-18T17:57:43.067Z,6.00
2018-04-18T18:00:11.632Z,6.50
2018-04-18T18:02:39.993Z,4.50
2018-04-18T18:05:08.423Z,8.27
2018-04-18T18:07:36.805Z,5.37
2018-04-18T18:10:05.315Z,6.67
2018-04-18T18:12:33.702Z,5.53
2018-04-18T18:15:02.086Z,5.43
2018-04-18T18:17:30.487Z,7.07
2018-04-18T18:19:59.330Z,5.43
2018-04-18T18:22:27.745Z,5.10
2018-04-18T18:24:57.424Z,4.57
2018-04-18T18:27:25.831Z,5.60
2018-04-18T18:29:55.004Z,4.33
2018-04-18T18:32:24.304Z,4.80
2018-04-18T18:34:52.935Z,7.23
2018-04-18T18:37:22.430Z,5.70
2018-04-18T18:39:51.576Z,5.83
2018-04-18T18:42:20.393Z,6.93
2018-04-18T18:44:49.816Z,6.83
2018-04-18T18:47:19.420Z,7.93
2018-04-18T18:49:50.106Z,3.60
2018-04-18T18:52:20.277Z,5.67
2018-04-18T18:54:49.590Z,5.67
2018-04-18T18:57:18.740Z,5.50
2018-04-18T18:59:47.129Z,6.10
2018-04-18T19:02:15.506Z,6.93
2018-04-18T19:04:44.594Z,4.33
2018-04-18T19:07:13.008Z,8.17
2018-04-18T19:09:42.211Z,4.00
2018-04-18T19:12:11.749Z,5.57
2018-04-18T19:14:40.191Z,5.70
2018-04-18T19:17:08.559Z,3.20
2018-04-18T19:19:37.159Z,4.30
2018-04-18T19:22:05.527Z,4.83
2018-04-18T19:24:34.861Z,5.77
2018-04-18T19:27:03.392Z,4.10
2018-04-18T19:29:31.802Z,7.50
2018-04-18T19:32:00.191Z,4.80
2018-04-18T19:34:28.625Z,7.23
2018-04-18T19:36:57.086Z,5.57
2018-04-18T19:39:25.491Z,5.50
2018-04-18T19:41:54.121Z,3.63
2018-04-18T19:44:22.506Z,5.03
2018-04-18T19:46:51.390Z,3.53
2018-04-18T19:49:20.163Z,5.80
2018-04-18T19:51:48.593Z,6.57
2018-04-18T19:54:16.979Z,5.73
2018-04-18T19:56:45.338Z,5.43
2018-04-18T19:59:14.222Z,4.33
2018-04-18T20:01:42.752Z,4.87
2018-04-18T20:04:12.413Z,4.27
2018-04-18T20:06:40.777Z,7.47
2018-04-18T20:09:09.227Z,4.10
2018-04-18T20:11:37.815Z,4.60
2018-04-18T20:14:06.660Z,6.90
2018-04-18T20:16:35.894Z,5.70
2018-04-18T20:19:04.406Z,4.23
2018-04-18T20:21:33.265Z,6.07
2018-04-18T20:24:01.995Z,6.27
2018-04-18T20:26:30.385Z,9.30
2018-04-18T20:28:59.151Z,6.43
2018-04-18T20:31:27.572Z,6.90
2018-04-18T20:33:55.965Z,7.27
2018-04-18T20:36:24.807Z,5.53
2018-04-18T20:38:53.219Z,5.37
2018-04-18T20:41:22.354Z,5.50
2018-04-18T20:43:50.738Z,6.60
2018-04-18T20:46:19.128Z,8.60
2018-04-18T20:48:47.674Z,6.53
2018-04-18T20:51:16.582Z,5.50
2018-04-18T20:53:45.104Z,4.30
2018-04-18T20:56:13.799Z,5.93
2018-04-18T20:58:43.413Z,5.40
2018-04-18T21:01:12.102Z,4.97
2018-04-18T21:03:41.254Z,4.73
2018-04-18T21:06:09.711Z,6.27
2018-04-18T21:08:38.459Z,5.77
2018-04-18T21:11:07.607Z,3.80
2018-04-18T21:13:36.363Z,4.00
2018-04-18T21:16:05.504Z,6.23
2018-04-18T21:18:34.324Z,9.47
2018-04-18T21:21:03.802Z,3.77
2018-04-18T21:23:32.386Z,4.87
2018-04-18T21:26:02.272Z,6.13
2018-04-18T21:28:30.704Z,7.33
2018-04-18T21:30:59.885Z,6.57
2018-04-18T21:33:28.375Z,5.70
2018-04-18T21:35:57.055Z,3.70
2018-04-18T21:38:25.801Z,7.30
2018-04-18T21:40:54.166Z,5.17
2018-04-18T21:43:22.557Z,7.00
2018-04-18T21:45:50.954Z,5.03
2018-04-18T21:48:19.321Z,8.50
2018-04-18T21:50:47.807Z,6.57
2018-04-18T21:53:16.191Z,6.33
2018-04-18T21:55:44.585Z,4.70
2018-04-18T21:58:12.993Z,7.63
2018-04-18T22:00:42.105Z,5.93
2018-04-18T22:03:10.500Z,7.23
2018-04-18T22:05:39.044Z,5.53
2018-04-18T22:08:08.294Z,4.77
2018-04-18T22:10:36.678Z,4.90
2018-04-18T22:13:05.058Z,6.87
2018-04-18T22:15:33.845Z,13.43
2018-04-18T22:18:02.235Z,6.00
2018-04-18T22:20:31.691Z,6.03
2018-04-18T22:23:00.059Z,5.00
2018-04-18T22:25:28.702Z,6.23
2018-04-18T22:27:57.088Z,8.80
2018-04-18T22:30:26.584Z,7.53
2018-04-18T22:32:56.655Z,6.43
2018-04-18T22:35:25.043Z,6.37
2018-04-18T22:37:53.429Z,6.87
2018-04-18T22:40:21.811Z,7.13
2018-04-18T22:42:50.565Z,6.20
2018-04-18T22:45:19.002Z,3.83
2018-04-18T22:47:47.466Z,5.97
2018-04-18T22:50:15.858Z,6.03
2018-04-18T22:52:44.686Z,5.27
2018-04-18T22:55:13.401Z,5.90
2018-04-18T22:57:41.792Z,8.17
2018-04-18T23:00:10.276Z,5.10
2018-04-18T23:02:39.126Z,8.60
2018-04-18T23:05:07.610Z,7.17
2018-04-18T23:07:35.995Z,5.30
2018-04-18T23:10:05.458Z,6.90
2018-04-18T23:12:34.957Z,10.43
2018-04-18T23:15:04.120Z,5.03
2018-04-18T23:17:32.806Z,6.00
2018-04-18T23:20:01.481Z,4.67
2018-04-18T23:22:33.860Z,6.50
2018-04-18T23:25:02.439Z,7.33
2018-04-18T23:27:30.987Z,7.20
2018-04-18T23:30:00.218Z,7.87
2018-04-18T23:32:28.966Z,5.23
2018-04-18T23:34:57.346Z,5.80
2018-04-18T23:37:25.736Z,6.53
2018-04-18T23:39:54.998Z,7.03
2018-04-18T23:42:23.859Z,8.23
2018-04-18T23:44:53.243Z,6.73
2018-04-18T23:47:21.960Z,9.67
2018-04-18T23:49:50.531Z,6.17
2018-04-18T23:52:21.800Z,6.40
2018-04-18T23:54:50.981Z,7.80
2018-04-18T23:57:19.334Z,6.87
2018-04-18T23:59:48.035Z,9.60
